createdAt,value
2019-03-20T00:00:54.393Z,9.50
2019-03-20T00:01:54.395Z,9.20
2019-03-20T00:02:54.365Z,9.50
2019-03-20T00:03:54.357Z,9.30
2019-03-20T00:04:54.343Z,9.70
2019-03-20T00:05:54.336Z,9.10
2019-03-20T00:06:54.323Z,9.70
2019-03-20T00:07:54.328Z,9.20
2019-03-20T00:08:54.300Z,8.80
2019-03-20T00:09:54.287Z,8.90
2019-03-20T00:10:54.275Z,9.10
2019-03-20T00:11:54.272Z,9.30
2019-03-20T00:12:54.259Z,9.60
2019-03-20T00:13:54.259Z,9.90
2019-03-20T00:14:54.235Z,9.90
2019-03-20T00:15:54.221Z,9.80
2019-03-20T00:16:54.211Z,10.50
2019-03-20T00:17:54.202Z,9.20
2019-03-20T00:18:54.216Z,9.90
2019-03-20T00:19:54.191Z,9.80
2019-03-20T00:20:54.178Z,10.70
2019-03-20T00:21:54.154Z,10.10
2019-03-20T00:22:54.142Z,10.40
2019-03-20T00:23:54.132Z,10.50
2019-03-20T00:24:54.128Z,9.90
2019-03-20T00:25:54.132Z,10.50
2019-03-20T00:26:54.116Z,9.70
2019-03-20T00:27:54.106Z,10.10
2019-03-20T00:28:54.083Z,9.90
2019-03-20T00:29:54.087Z,10.10
2019-03-20T00:30:54.073Z,10.20
2019-03-20T00:31:54.065Z,9.90
2019-03-20T00:32:54.033Z,10.20
2019-03-20T00:33:54.035Z,10.80
2019-03-20T00:35:00.764Z,10.20
2019-03-20T00:35:54.995Z,10.40
2019-03-20T00:36:53.989Z,10.60
2019-03-20T00:37:53.996Z,10.40
2019-03-20T00:38:53.965Z,10.70
2019-03-20T00:39:53.959Z,10.00
2019-03-20T00:40:53.947Z,10.30
2019-03-20T00:41:53.932Z,10.70
2019-03-20T00:42:53.919Z,9.90
2019-03-20T00:43:53.965Z,11.00
2019-03-20T00:44:53.897Z,10.50
2019-03-20T00:45:53.887Z,10.30
2019-03-20T00:46:53.877Z,10.90
2019-03-20T00:47:53.867Z,11.00
2019-03-20T00:48:53.854Z,10.40
2019-03-20T00:49:53.887Z,10.00
2019-03-20T00:50:53.834Z,10.50
2019-03-20T00:51:53.822Z,10.90
2019-03-20T00:52:53.810Z,10.70
2019-03-20T00:53:53.798Z,9.90
2019-03-20T00:54:53.793Z,12.10
2019-03-20T00:55:53.796Z,10.50
2019-03-20T00:56:53.771Z,11.80
2019-03-20T00:57:53.758Z,11.90
2019-03-20T00:58:53.743Z,10.10
2019-03-20T00:59:53.732Z,10.30
2019-03-20T01:00:53.720Z,10.40
2019-03-20T01:01:53.733Z,10.30
2019-03-20T01:02:53.696Z,10.30
2019-03-20T01:03:53.692Z,10.30
2019-03-20T01:04:53.678Z,10.70
2019-03-20T01:05:53.677Z,10.90
2019-03-20T01:06:53.656Z,10.40
2019-03-20T01:07:53.674Z,10.30
2019-03-20T01:08:53.642Z,9.60
2019-03-20T01:09:53.623Z,9.40
2019-03-20T01:10:53.621Z,8.90
2019-03-20T01:11:53.603Z,8.50
2019-03-20T01:12:53.656Z,9.00
2019-03-20T01:13:53.597Z,8.90
2019-03-20T01:14:53.581Z,8.50
2019-03-20T01:15:53.564Z,8.80
2019-03-20T01:16:53.549Z,9.20
2019-03-20T01:17:53.533Z,8.80
2019-03-20T01:18:53.526Z,9.00
2019-03-20T01:19:53.563Z,9.60
2019-03-20T01:20:53.496Z,9.30
2019-03-20T01:21:53.503Z,9.80
2019-03-20T01:22:53.478Z,9.80
2019-03-20T01:23:53.464Z,9.40
2019-03-20T01:24:53.452Z,9.00
2019-03-20T01:25:53.459Z,10.20
2019-03-20T01:26:53.448Z,9.60
2019-03-20T01:27:53.419Z,9.90
2019-03-20T01:28:53.412Z,9.10
2019-03-20T01:29:53.401Z,9.30
2019-03-20T01:30:53.387Z,9.10
2019-03-20T01:31:53.396Z,9.80
2019-03-20T01:32:53.375Z,8.40
2019-03-20T01:33:54.942Z,9.10
2019-03-20T01:34:53.341Z,9.40
2019-03-20T01:35:53.331Z,9.60
2019-03-20T01:36:53.319Z,9.70
2019-03-20T01:37:53.325Z,9.30
2019-03-20T01:38:53.301Z,8.90
2019-03-20T01:39:53.289Z,9.00
2019-03-20T01:40:53.282Z,8.60
2019-03-20T01:41:53.278Z,9.30
2019-03-20T01:42:53.257Z,9.80
2019-03-20T01:43:53.262Z,9.60
2019-03-20T01:44:53.232Z,9.50
2019-03-20T01:45:53.226Z,9.60
2019-03-20T01:46:53.276Z,9.50
2019-03-20T01:47:53.199Z,9.40
2019-03-20T01:48:53.189Z,9.20
2019-03-20T01:49:53.194Z,9.90
2019-03-20T01:50:53.163Z,9.20
2019-03-20T01:51:53.156Z,9.90
2019-03-20T01:52:53.159Z,9.30
2019-03-20T01:53:53.130Z,9.70
2019-03-20T01:54:53.122Z,9.10
2019-03-20T01:55:53.148Z,9.70
2019-03-20T01:56:53.109Z,10.10
2019-03-20T01:57:53.088Z,9.80
2019-03-20T01:58:53.079Z,9.30
2019-03-20T01:59:53.063Z,10.10
2019-03-20T02:00:53.053Z,9.30
2019-03-20T02:01:53.060Z,9.70
2019-03-20T02:02:53.038Z,10.10
2019-03-20T02:03:53.023Z,9.40
2019-03-20T02:04:53.014Z,9.60
2019-03-20T02:05:52.996Z,9.60
2019-03-20T02:06:52.989Z,9.90
2019-03-20T02:07:52.989Z,9.50
2019-03-20T02:08:52.967Z,9.60
2019-03-20T02:09:52.954Z,10.00
2019-03-20T02:10:52.946Z,9.30
2019-03-20T02:11:52.930Z,9.20
2019-03-20T02:12:52.924Z,9.20
2019-03-20T02:13:52.934Z,9.50
2019-03-20T02:14:52.899Z,9.00
2019-03-20T02:15:52.884Z,9.90
2019-03-20T02:16:52.914Z,9.50
2019-03-20T02:17:52.865Z,10.30
2019-03-20T02:18:52.865Z,9.90
2019-03-20T02:19:52.857Z,10.00
2019-03-20T02:20:52.838Z,9.50
2019-03-20T02:21:52.822Z,9.90
2019-03-20T02:22:52.827Z,9.60
2019-03-20T02:23:52.798Z,9.70
2019-03-20T02:24:52.796Z,9.90
2019-03-20T02:25:52.801Z,9.80
2019-03-20T02:26:52.768Z,10.40
2019-03-20T02:27:52.759Z,10.10
2019-03-20T02:28:52.744Z,10.00
2019-03-20T02:29:52.731Z,9.30
2019-03-20T02:30:52.720Z,9.50
2019-03-20T02:31:52.727Z,10.70
2019-03-20T02:32:52.695Z,10.20
2019-03-20T02:33:52.701Z,9.30
2019-03-20T02:34:52.687Z,9.90
2019-03-20T02:35:52.664Z,9.80
2019-03-20T02:36:52.655Z,10.00
2019-03-20T02:37:52.673Z,9.50
2019-03-20T02:38:52.646Z,9.20
2019-03-20T02:39:52.624Z,9.60
2019-03-20T02:40:52.623Z,9.70
2019-03-20T02:41:52.595Z,9.90
2019-03-20T02:42:52.584Z,9.10
2019-03-20T02:43:52.592Z,9.40
2019-03-20T02:44:52.567Z,9.40
2019-03-20T02:45:52.556Z,9.90
2019-03-20T02:46:52.542Z,10.20
2019-03-20T02:47:52.530Z,10.40
2019-03-20T02:48:52.522Z,9.80
2019-03-20T02:49:52.525Z,10.10
2019-03-20T02:50:52.500Z,9.80
2019-03-20T02:51:52.485Z,9.70
2019-03-20T02:52:52.477Z,9.80
2019-03-20T02:53:52.468Z,9.50
2019-03-20T02:54:52.464Z,8.80
2019-03-20T02:55:52.468Z,9.90
2019-03-20T02:56:52.432Z,9.50
2019-03-20T02:57:52.467Z,9.70
2019-03-20T02:58:52.428Z,9.20
2019-03-20T02:59:52.396Z,8.80
2019-03-20T03:00:52.393Z,9.10
2019-03-20T03:01:52.390Z,9.50
2019-03-20T03:02:52.369Z,9.00
2019-03-20T03:03:52.352Z,10.30
2019-03-20T03:04:52.345Z,10.30
2019-03-20T03:06:05.636Z,9.40
2019-03-20T03:06:53.332Z,9.40
2019-03-20T03:07:52.319Z,9.40
2019-03-20T03:08:52.303Z,9.40
2019-03-20T03:09:52.286Z,8.60
2019-03-20T03:10:55.522Z,9.10
2019-03-20T03:11:52.282Z,9.50
2019-03-20T03:12:52.309Z,9.70
2019-03-20T03:13:52.244Z,9.60
2019-03-20T03:14:53.134Z,10.00
2019-03-20T03:15:52.223Z,10.30
2019-03-20T03:16:52.208Z,10.10
2019-03-20T03:17:52.199Z,10.50
2019-03-20T03:18:52.200Z,10.40
2019-03-20T03:19:52.177Z,10.30
2019-03-20T03:20:52.177Z,10.10
2019-03-20T03:21:52.153Z,9.20
2019-03-20T03:22:52.168Z,9.80
2019-03-20T03:23:52.139Z,9.90
2019-03-20T03:24:52.151Z,10.10
2019-03-20T03:25:52.111Z,9.90
2019-03-20T03:26:52.098Z,10.20
2019-03-20T03:27:52.091Z,9.20
2019-03-20T03:28:52.078Z,9.40
2019-03-20T03:29:52.104Z,9.70
2019-03-20T03:30:52.081Z,10.40
2019-03-20T03:31:52.044Z,9.80
2019-03-20T03:32:52.040Z,9.60
2019-03-20T03:33:52.020Z,10.00
2019-03-20T03:34:52.010Z,9.90
2019-03-20T03:35:52.628Z,9.30
2019-03-20T03:36:52.002Z,9.00
2019-03-20T03:37:51.979Z,9.90
2019-03-20T03:38:51.978Z,10.20
2019-03-20T03:39:51.951Z,9.70
2019-03-20T03:40:51.942Z,9.80
2019-03-20T03:41:51.943Z,10.20
2019-03-20T03:42:51.969Z,9.70
2019-03-20T03:43:51.911Z,10.00
2019-03-20T03:44:51.917Z,10.10
2019-03-20T03:45:51.884Z,10.30
2019-03-20T03:46:52.629Z,10.20
2019-03-20T03:47:51.867Z,10.10
2019-03-20T03:48:51.871Z,9.90
2019-03-20T03:49:51.873Z,10.10
2019-03-20T03:50:51.831Z,10.70
2019-03-20T03:51:51.831Z,9.60
2019-03-20T03:52:51.826Z,9.90
2019-03-20T03:53:51.799Z,9.90
2019-03-20T03:54:51.807Z,9.80
2019-03-20T03:55:51.780Z,10.40
2019-03-20T03:56:51.761Z,9.60
2019-03-20T03:57:51.754Z,9.30
2019-03-20T03:58:51.760Z,10.00
2019-03-20T03:59:51.749Z,9.70
2019-03-20T04:00:51.757Z,9.60
2019-03-20T04:01:52.631Z,9.80
2019-03-20T04:02:51.697Z,10.10
2019-03-20T04:03:51.688Z,10.20
2019-03-20T04:04:51.679Z,9.50
2019-03-20T04:05:51.672Z,8.90
2019-03-20T04:06:51.673Z,9.20
2019-03-20T04:07:51.645Z,10.00
2019-03-20T04:08:51.634Z,8.90
2019-03-20T04:09:51.626Z,9.30
2019-03-20T04:10:52.126Z,9.60
2019-03-20T04:11:51.628Z,9.50
2019-03-20T04:12:51.610Z,10.30
2019-03-20T04:13:51.575Z,9.60
2019-03-20T04:14:51.569Z,9.20
2019-03-20T04:15:51.553Z,9.00
2019-03-20T04:16:51.542Z,9.10
2019-03-20T04:17:51.531Z,9.50
2019-03-20T04:18:51.553Z,8.90
2019-03-20T04:19:51.509Z,9.20
2019-03-20T04:20:51.500Z,9.10
2019-03-20T04:21:51.491Z,9.80
2019-03-20T04:22:51.485Z,8.40
2019-03-20T04:23:51.469Z,9.20
2019-03-20T04:24:51.485Z,9.00
2019-03-20T04:25:52.136Z,9.20
2019-03-20T04:26:51.457Z,9.10
2019-03-20T04:27:51.423Z,9.10
2019-03-20T04:28:51.405Z,8.80
2019-03-20T04:29:51.397Z,9.40
2019-03-20T04:30:51.409Z,9.50
2019-03-20T04:31:51.390Z,9.60
2019-03-20T04:32:51.374Z,10.20
2019-03-20T04:33:51.360Z,9.80
2019-03-20T04:34:51.344Z,9.90
2019-03-20T04:35:51.334Z,9.50
2019-03-20T04:36:51.341Z,9.30
2019-03-20T04:37:51.308Z,10.20
2019-03-20T04:38:51.298Z,9.60
2019-03-20T04:39:51.298Z,9.80
2019-03-20T04:40:51.288Z,9.30
2019-03-20T04:41:51.279Z,9.50
2019-03-20T04:42:51.290Z,9.70
2019-03-20T04:43:51.243Z,9.40
2019-03-20T04:44:51.247Z,9.20
2019-03-20T04:45:51.217Z,10.90
2019-03-20T04:46:51.217Z,10.20
2019-03-20T04:47:51.196Z,9.60
2019-03-20T04:48:51.221Z,9.60
2019-03-20T04:49:51.174Z,9.90
2019-03-20T04:50:51.174Z,9.70
2019-03-20T04:51:51.154Z,9.70
2019-03-20T04:52:51.148Z,9.80
2019-03-20T04:53:51.135Z,10.00
2019-03-20T04:54:51.154Z,9.90
2019-03-20T04:55:51.107Z,9.60
2019-03-20T04:56:51.102Z,9.80
2019-03-20T04:57:51.088Z,10.00
2019-03-20T04:58:51.077Z,10.20
2019-03-20T04:59:51.069Z,9.90
2019-03-20T05:00:51.077Z,10.30
2019-03-20T05:01:51.640Z,10.50
2019-03-20T05:02:51.032Z,10.50
2019-03-20T05:03:51.030Z,10.30
2019-03-20T05:04:51.009Z,10.60
2019-03-20T05:05:51.000Z,10.40
2019-03-20T05:06:58.864Z,9.80
2019-03-20T05:07:51.980Z,10.00
2019-03-20T05:08:50.968Z,10.50
2019-03-20T05:09:51.019Z,10.80
2019-03-20T05:10:50.961Z,9.60
2019-03-20T05:11:50.947Z,10.80
2019-03-20T05:12:50.944Z,10.30
2019-03-20T05:13:50.917Z,10.20
2019-03-20T05:14:50.913Z,10.20
2019-03-20T05:15:50.889Z,9.90
2019-03-20T05:16:50.878Z,11.00
2019-03-20T05:17:50.867Z,10.90
2019-03-20T05:18:50.901Z,10.90
2019-03-20T05:19:50.847Z,9.60
2019-03-20T05:20:50.831Z,9.60
2019-03-20T05:21:50.825Z,10.00
2019-03-20T05:22:50.812Z,10.30
2019-03-20T05:23:50.804Z,10.10
2019-03-20T05:24:50.811Z,10.70
2019-03-20T05:25:50.778Z,10.90
2019-03-20T05:26:50.773Z,10.10
2019-03-20T05:27:50.765Z,10.40
2019-03-20T05:28:50.744Z,10.50
2019-03-20T05:29:50.737Z,10.20
2019-03-20T05:30:50.741Z,10.10
2019-03-20T05:31:50.737Z,9.50
2019-03-20T05:32:50.703Z,9.90
2019-03-20T05:33:50.702Z,10.30
2019-03-20T05:34:50.679Z,10.70
2019-03-20T05:35:50.670Z,10.30
2019-03-20T05:36:50.685Z,10.50
2019-03-20T05:37:50.647Z,10.70
2019-03-20T05:38:50.635Z,9.90
2019-03-20T05:39:50.630Z,11.00
2019-03-20T05:40:50.615Z,10.20
2019-03-20T05:41:50.617Z,9.60
2019-03-20T05:42:50.607Z,10.40
2019-03-20T05:43:50.587Z,11.00
2019-03-20T05:44:50.568Z,10.60
2019-03-20T05:45:50.560Z,11.30
2019-03-20T05:46:50.554Z,11.00
2019-03-20T05:47:50.535Z,11.20
2019-03-20T05:48:50.546Z,9.90
2019-03-20T05:49:50.522Z,12.30
2019-03-20T05:50:50.513Z,14.20
2019-03-20T05:51:50.504Z,11.70
2019-03-20T05:52:50.491Z,12.20
2019-03-20T05:53:50.472Z,11.60
2019-03-20T05:54:50.471Z,11.40
2019-03-20T05:55:50.483Z,10.70
2019-03-20T05:56:50.456Z,10.10
2019-03-20T05:57:50.443Z,10.80
2019-03-20T05:58:50.416Z,10.40
2019-03-20T05:59:50.408Z,9.90
2019-03-20T06:00:50.441Z,10.30
2019-03-20T06:01:50.382Z,10.30
2019-03-20T06:02:50.371Z,10.30
2019-03-20T06:03:50.358Z,10.60
2019-03-20T06:04:50.349Z,10.20
2019-03-20T06:05:50.341Z,10.60
2019-03-20T06:06:50.344Z,10.10
2019-03-20T06:07:50.313Z,10.20
2019-03-20T06:08:51.129Z,9.60
2019-03-20T06:09:50.296Z,10.10
2019-03-20T06:10:50.287Z,9.90
2019-03-20T06:11:50.268Z,9.80
2019-03-20T06:12:50.281Z,10.00
2019-03-20T06:13:50.256Z,9.80
2019-03-20T06:14:50.248Z,10.20
2019-03-20T06:15:50.238Z,10.10
2019-03-20T06:16:50.219Z,10.00
2019-03-20T06:17:50.203Z,10.10
2019-03-20T06:18:50.206Z,9.50
2019-03-20T06:19:50.186Z,9.90
2019-03-20T06:20:50.183Z,9.70
2019-03-20T06:21:50.159Z,10.70
2019-03-20T06:22:50.214Z,10.10
2019-03-20T06:23:50.139Z,10.20
2019-03-20T06:24:50.155Z,10.60
2019-03-20T06:25:51.541Z,11.30
2019-03-20T06:26:50.102Z,11.30
2019-03-20T06:27:50.095Z,11.50
2019-03-20T06:28:50.096Z,12.20
2019-03-20T06:29:50.081Z,10.70
2019-03-20T06:30:50.076Z,11.00
2019-03-20T06:31:50.047Z,11.30
2019-03-20T06:32:50.044Z,11.30
2019-03-20T06:33:50.029Z,11.30
2019-03-20T06:34:50.016Z,10.40
2019-03-20T06:35:50.004Z,9.80
2019-03-20T06:36:50.045Z,9.30
2019-03-20T06:37:49.990Z,9.30
2019-03-20T06:38:49.975Z,9.60
2019-03-20T06:39:49.978Z,9.30
2019-03-20T06:40:49.958Z,9.50
2019-03-20T06:41:49.939Z,8.90
2019-03-20T06:42:49.992Z,8.90
2019-03-20T06:43:49.939Z,9.30
2019-03-20T06:44:49.905Z,9.00
2019-03-20T06:45:49.895Z,8.40
2019-03-20T06:46:49.883Z,9.50
2019-03-20T06:47:49.875Z,9.80
2019-03-20T06:48:49.875Z,10.50
2019-03-20T06:49:49.848Z,10.90
2019-03-20T06:50:49.839Z,11.00
2019-03-20T06:51:49.829Z,9.70
2019-03-20T06:52:49.817Z,10.70
2019-03-20T06:53:49.814Z,10.30
2019-03-20T06:54:49.819Z,9.00
2019-03-20T06:55:49.781Z,9.80
2019-03-20T06:56:49.775Z,9.40
2019-03-20T06:57:49.767Z,9.10
2019-03-20T06:58:49.755Z,9.50
2019-03-20T06:59:49.746Z,8.80
2019-03-20T07:00:49.765Z,9.10
2019-03-20T07:01:49.725Z,8.20
2019-03-20T07:02:49.710Z,8.40
2019-03-20T07:03:49.708Z,8.60
2019-03-20T07:04:49.686Z,8.00
2019-03-20T07:05:49.676Z,7.60
2019-03-20T07:06:49.684Z,8.00
2019-03-20T07:07:49.652Z,7.90
2019-03-20T07:08:49.643Z,8.00
2019-03-20T07:09:49.631Z,7.70
2019-03-20T07:10:49.618Z,8.30
2019-03-20T07:11:49.611Z,7.40
2019-03-20T07:12:49.617Z,7.20
2019-03-20T07:13:50.662Z,7.90
2019-03-20T07:14:49.576Z,8.00
2019-03-20T07:15:49.570Z,8.10
2019-03-20T07:16:49.561Z,8.00
2019-03-20T07:17:49.544Z,7.20
2019-03-20T07:18:49.551Z,7.70
2019-03-20T07:19:49.523Z,7.50
2019-03-20T07:20:49.568Z,7.80
2019-03-20T07:21:49.505Z,8.30
2019-03-20T07:22:49.496Z,8.10
2019-03-20T07:23:49.484Z,7.70
2019-03-20T07:24:49.497Z,7.50
2019-03-20T07:25:49.471Z,7.90
2019-03-20T07:26:49.457Z,7.90
2019-03-20T07:27:49.439Z,7.50
2019-03-20T07:28:49.427Z,7.40
2019-03-20T07:29:49.506Z,7.40
2019-03-20T07:30:49.426Z,7.60
2019-03-20T07:31:49.429Z,7.20
2019-03-20T07:32:49.385Z,8.10
2019-03-20T07:33:49.371Z,7.60
2019-03-20T07:34:49.362Z,7.90
2019-03-20T07:35:49.349Z,7.60
2019-03-20T07:36:49.360Z,8.30
2019-03-20T07:37:56.029Z,8.90
2019-03-20T07:38:50.313Z,8.10
2019-03-20T07:39:49.302Z,8.10
2019-03-20T07:40:49.292Z,8.60
2019-03-20T07:41:49.277Z,8.60
2019-03-20T07:42:49.280Z,8.70
2019-03-20T07:43:49.267Z,8.30
2019-03-20T07:44:49.243Z,7.60
2019-03-20T07:45:49.231Z,7.40
2019-03-20T07:46:49.223Z,7.30
2019-03-20T07:47:49.205Z,7.00
2019-03-20T07:48:49.209Z,6.80
2019-03-20T07:49:49.182Z,6.80
2019-03-20T07:50:49.173Z,7.40
2019-03-20T07:51:49.160Z,6.70
2019-03-20T07:52:49.148Z,7.80
2019-03-20T07:53:49.140Z,7.50
2019-03-20T07:54:49.144Z,7.40
2019-03-20T07:55:49.117Z,7.20
2019-03-20T07:56:49.101Z,7.40
2019-03-20T07:57:49.091Z,7.50
2019-03-20T07:58:49.078Z,6.80
2019-03-20T07:59:49.072Z,7.30
2019-03-20T08:00:49.070Z,7.90
2019-03-20T08:01:49.049Z,7.50
2019-03-20T08:02:49.032Z,6.80
2019-03-20T08:03:49.022Z,7.30
2019-03-20T08:04:49.015Z,7.10
2019-03-20T08:05:48.999Z,7.00
2019-03-20T08:06:49.003Z,7.10
2019-03-20T08:07:48.977Z,6.50
2019-03-20T08:08:48.970Z,7.10
2019-03-20T08:09:48.953Z,6.80
2019-03-20T08:10:48.948Z,7.10
2019-03-20T08:11:48.929Z,6.50
2019-03-20T08:12:48.939Z,6.90
2019-03-20T08:13:48.913Z,6.80
2019-03-20T08:14:48.898Z,6.20
2019-03-20T08:15:48.886Z,6.30
2019-03-20T08:16:48.874Z,6.70
2019-03-20T08:17:48.870Z,6.40
2019-03-20T08:18:48.866Z,6.50
2019-03-20T08:19:48.842Z,6.50
2019-03-20T08:20:48.830Z,6.10
2019-03-20T08:21:48.824Z,6.20
2019-03-20T08:22:48.810Z,5.90
2019-03-20T08:23:48.796Z,6.20
2019-03-20T08:24:48.801Z,5.90
2019-03-20T08:25:48.772Z,6.10
2019-03-20T08:26:48.762Z,6.00
2019-03-20T08:27:48.755Z,6.00
2019-03-20T08:28:48.745Z,5.60
2019-03-20T08:29:48.730Z,5.50
2019-03-20T08:30:48.733Z,5.70
2019-03-20T08:31:48.706Z,5.50
2019-03-20T08:32:48.702Z,5.70
2019-03-20T08:33:48.691Z,5.40
2019-03-20T08:34:48.677Z,5.10
2019-03-20T08:35:48.663Z,6.00
2019-03-20T08:36:48.674Z,5.90
2019-03-20T08:37:48.642Z,5.30
2019-03-20T08:38:48.634Z,5.30
2019-03-20T08:39:48.621Z,5.60
2019-03-20T08:40:48.614Z,5.20
2019-03-20T08:41:48.599Z,5.10
2019-03-20T08:42:48.601Z,5.00
2019-03-20T08:43:48.582Z,5.40
2019-03-20T08:44:48.567Z,5.40
2019-03-20T08:45:48.554Z,5.20
2019-03-20T08:46:48.544Z,5.30
2019-03-20T08:47:48.563Z,5.50
2019-03-20T08:48:48.603Z,5.00
2019-03-20T08:49:48.511Z,5.30
2019-03-20T08:50:48.495Z,5.50
2019-03-20T08:51:48.486Z,5.40
2019-03-20T08:52:48.479Z,5.10
2019-03-20T08:53:48.462Z,5.30
2019-03-20T08:54:48.478Z,5.10
2019-03-20T08:55:48.445Z,5.40
2019-03-20T08:56:49.218Z,4.80
2019-03-20T08:57:48.427Z,5.00
2019-03-20T08:58:48.404Z,5.40
2019-03-20T08:59:48.392Z,5.00
2019-03-20T09:00:48.397Z,4.90
2019-03-20T09:01:48.377Z,5.20
2019-03-20T09:02:48.359Z,5.10
2019-03-20T09:03:48.350Z,4.60
2019-03-20T09:04:48.337Z,5.10
2019-03-20T09:05:48.323Z,4.80
2019-03-20T09:06:48.329Z,5.00
2019-03-20T09:07:48.300Z,5.00
2019-03-20T09:08:48.293Z,4.30
2019-03-20T09:09:48.278Z,5.30
2019-03-20T09:10:48.268Z,4.80
2019-03-20T09:11:48.258Z,5.20
2019-03-20T09:12:48.265Z,5.30
2019-03-20T09:13:48.230Z,4.70
2019-03-20T09:14:48.221Z,4.60
2019-03-20T09:15:48.211Z,4.60
2019-03-20T09:16:48.215Z,5.10
2019-03-20T09:17:48.184Z,4.60
2019-03-20T09:18:48.225Z,4.80
2019-03-20T09:19:48.171Z,5.20
2019-03-20T09:20:48.153Z,4.60
2019-03-20T09:21:48.145Z,4.70
2019-03-20T09:22:48.131Z,4.60
2019-03-20T09:23:48.116Z,5.30
2019-03-20T09:24:48.120Z,5.00
2019-03-20T09:25:48.097Z,4.30
2019-03-20T09:26:48.083Z,4.70
2019-03-20T09:27:48.074Z,4.50
2019-03-20T09:28:48.068Z,4.70
2019-03-20T09:29:48.659Z,4.50
2019-03-20T09:30:48.055Z,4.70
2019-03-20T09:31:48.061Z,4.50
2019-03-20T09:32:48.016Z,4.10
2019-03-20T09:33:48.054Z,4.00
2019-03-20T09:34:47.998Z,4.60
2019-03-20T09:35:47.983Z,4.70
2019-03-20T09:36:47.993Z,4.30
2019-03-20T09:37:52.083Z,4.80
2019-03-20T09:38:47.952Z,4.40
2019-03-20T09:39:47.938Z,4.30
2019-03-20T09:40:47.936Z,4.40
2019-03-20T09:41:47.917Z,4.20
2019-03-20T09:42:47.929Z,4.60
2019-03-20T09:43:47.895Z,3.90
2019-03-20T09:44:47.892Z,4.50
2019-03-20T09:45:47.870Z,4.70
2019-03-20T09:46:47.889Z,4.40
2019-03-20T09:47:47.851Z,4.70
2019-03-20T09:48:47.860Z,4.40
2019-03-20T09:49:47.827Z,4.60
2019-03-20T09:50:47.815Z,4.10
2019-03-20T09:51:47.805Z,4.30
2019-03-20T09:52:50.080Z,4.70
2019-03-20T09:53:47.792Z,4.40
2019-03-20T09:54:47.792Z,4.30
2019-03-20T09:55:47.760Z,4.40
2019-03-20T09:56:47.748Z,4.60
2019-03-20T09:57:47.735Z,4.40
2019-03-20T09:58:47.738Z,4.20
2019-03-20T09:59:47.715Z,4.00
2019-03-20T10:00:47.723Z,4.00
2019-03-20T10:01:47.691Z,4.50
2019-03-20T10:02:47.686Z,4.30
2019-03-20T10:03:47.667Z,4.40
2019-03-20T10:04:47.655Z,5.40
2019-03-20T10:05:47.648Z,5.20
2019-03-20T10:06:47.658Z,6.40
2019-03-20T10:07:47.636Z,4.80
2019-03-20T10:08:54.129Z,4.90
2019-03-20T10:09:48.600Z,4.70
2019-03-20T10:10:47.591Z,4.60
2019-03-20T10:11:47.593Z,4.70
2019-03-20T10:12:47.589Z,4.60
2019-03-20T10:13:47.554Z,4.60
2019-03-20T10:14:47.545Z,4.10
2019-03-20T10:15:47.537Z,3.90
2019-03-20T10:16:47.525Z,4.30
2019-03-20T10:17:47.539Z,4.10
2019-03-20T10:18:47.555Z,3.90
2019-03-20T10:19:47.488Z,4.50
2019-03-20T10:20:47.480Z,3.80
2019-03-20T10:21:47.466Z,4.50
2019-03-20T10:22:47.453Z,4.30
2019-03-20T10:23:47.443Z,4.20
2019-03-20T10:24:47.477Z,4.20
2019-03-20T10:25:47.423Z,4.30
2019-03-20T10:26:47.412Z,3.90
2019-03-20T10:27:47.435Z,3.70
2019-03-20T10:28:47.391Z,4.30
2019-03-20T10:29:47.380Z,4.40
2019-03-20T10:30:47.388Z,4.30
2019-03-20T10:31:47.354Z,4.00
2019-03-20T10:32:47.343Z,4.10
2019-03-20T10:33:47.333Z,3.90
2019-03-20T10:34:47.326Z,4.00
2019-03-20T10:35:50.453Z,3.90
2019-03-20T10:36:47.319Z,4.10
2019-03-20T10:37:47.314Z,4.70
2019-03-20T10:38:48.745Z,3.90
2019-03-20T10:39:47.279Z,4.00
2019-03-20T10:40:47.254Z,3.90
2019-03-20T10:41:47.247Z,4.10
2019-03-20T10:42:47.271Z,3.90
2019-03-20T10:43:47.225Z,4.20
2019-03-20T10:44:47.244Z,3.80
2019-03-20T10:45:47.198Z,4.10
2019-03-20T10:46:47.188Z,4.20
2019-03-20T10:47:47.196Z,4.00
2019-03-20T10:48:47.216Z,3.90
2019-03-20T10:49:47.159Z,3.70
2019-03-20T10:50:47.150Z,3.90
2019-03-20T10:51:47.134Z,4.30
2019-03-20T10:52:47.121Z,3.70
2019-03-20T10:53:47.112Z,3.80
2019-03-20T10:54:47.128Z,3.90
2019-03-20T10:55:47.101Z,4.30
2019-03-20T10:56:47.077Z,4.00
2019-03-20T10:57:47.089Z,4.30
2019-03-20T10:58:47.057Z,4.40
2019-03-20T10:59:47.047Z,4.10
2019-03-20T11:00:47.068Z,4.20
2019-03-20T11:01:47.022Z,4.40
2019-03-20T11:02:47.012Z,4.00
2019-03-20T11:03:54.597Z,3.70
2019-03-20T11:04:46.988Z,3.30
2019-03-20T11:05:46.978Z,3.60
2019-03-20T11:06:46.983Z,3.40
2019-03-20T11:07:46.968Z,3.10
2019-03-20T11:08:46.947Z,3.90
2019-03-20T11:09:46.936Z,3.40
2019-03-20T11:10:46.921Z,3.40
2019-03-20T11:11:46.912Z,3.90
2019-03-20T11:12:46.915Z,3.50
2019-03-20T11:13:46.890Z,3.50
2019-03-20T11:14:46.892Z,3.80
2019-03-20T11:15:46.877Z,4.50
2019-03-20T11:16:46.860Z,3.90
2019-03-20T11:17:46.858Z,3.80
2019-03-20T11:18:48.518Z,4.00
2019-03-20T11:19:46.824Z,3.90
2019-03-20T11:20:46.816Z,4.10
2019-03-20T11:21:46.799Z,4.10
2019-03-20T11:22:46.803Z,3.90
2019-03-20T11:23:46.781Z,4.10
2019-03-20T11:24:46.900Z,4.10
2019-03-20T11:25:46.762Z,3.90
2019-03-20T11:26:46.756Z,3.80
2019-03-20T11:27:46.735Z,4.10
2019-03-20T11:28:46.723Z,4.00
2019-03-20T11:29:46.712Z,3.60
2019-03-20T11:30:46.720Z,3.90
2019-03-20T11:31:46.690Z,4.00
2019-03-20T11:32:46.683Z,4.00
2019-03-20T11:33:46.666Z,4.00
2019-03-20T11:34:46.653Z,3.70
2019-03-20T11:35:46.651Z,3.70
2019-03-20T11:36:46.660Z,3.90
2019-03-20T11:37:46.646Z,3.60
2019-03-20T11:38:46.617Z,3.70
2019-03-20T11:39:46.631Z,3.60
2019-03-20T11:40:46.589Z,3.50
2019-03-20T11:41:46.578Z,3.40
2019-03-20T11:42:46.593Z,3.40
2019-03-20T11:43:46.554Z,3.30
2019-03-20T11:44:46.545Z,3.20
2019-03-20T11:45:46.529Z,3.30
2019-03-20T11:46:46.519Z,3.30
2019-03-20T11:47:46.508Z,3.30
2019-03-20T11:48:46.517Z,3.50
2019-03-20T11:49:46.481Z,3.60
2019-03-20T11:50:46.472Z,3.50
2019-03-20T11:51:46.458Z,4.10
2019-03-20T11:52:46.446Z,3.30
2019-03-20T11:53:46.438Z,3.50
2019-03-20T11:54:46.482Z,3.70
2019-03-20T11:55:46.414Z,3.60
2019-03-20T11:56:46.403Z,3.50
2019-03-20T11:57:46.389Z,3.30
2019-03-20T11:58:46.379Z,3.50
2019-03-20T11:59:46.368Z,3.80
2019-03-20T12:00:46.376Z,3.70
2019-03-20T12:01:46.354Z,3.90
2019-03-20T12:02:46.352Z,3.50
2019-03-20T12:03:46.320Z,3.70
2019-03-20T12:04:46.307Z,3.30
2019-03-20T12:05:46.318Z,3.10
2019-03-20T12:06:46.305Z,3.50
2019-03-20T12:07:46.277Z,3.20
2019-03-20T12:08:46.265Z,3.40
2019-03-20T12:09:46.253Z,3.30
2019-03-20T12:10:46.240Z,3.30
2019-03-20T12:11:46.389Z,3.50
2019-03-20T12:12:46.241Z,3.70
2019-03-20T12:13:46.204Z,3.80
2019-03-20T12:14:46.197Z,3.30
2019-03-20T12:15:46.182Z,3.50
2019-03-20T12:16:46.215Z,3.30
2019-03-20T12:17:46.189Z,3.40
2019-03-20T12:18:46.177Z,3.10
2019-03-20T12:19:46.140Z,3.00
2019-03-20T12:20:46.132Z,3.50
2019-03-20T12:21:46.123Z,3.50
2019-03-20T12:22:46.105Z,3.00
2019-03-20T12:23:46.096Z,3.00
2019-03-20T12:24:46.143Z,3.00
2019-03-20T12:25:46.075Z,3.00
2019-03-20T12:26:46.058Z,2.80
2019-03-20T12:27:46.052Z,3.00
2019-03-20T12:28:46.040Z,3.10
2019-03-20T12:29:46.030Z,3.30
2019-03-20T12:30:46.044Z,3.00
2019-03-20T12:31:46.013Z,3.10
2019-03-20T12:32:46.009Z,3.10
2019-03-20T12:33:46.026Z,3.10
2019-03-20T12:34:45.975Z,3.20
2019-03-20T12:35:45.961Z,3.30
2019-03-20T12:36:46.070Z,3.70
2019-03-20T12:37:45.943Z,3.80
2019-03-20T12:38:45.927Z,3.40
2019-03-20T12:39:53.019Z,3.50
2019-03-20T12:40:46.905Z,3.80
2019-03-20T12:41:45.898Z,3.30
2019-03-20T12:42:45.904Z,3.40
2019-03-20T12:43:45.875Z,3.30
2019-03-20T12:44:45.868Z,3.50
2019-03-20T12:45:45.852Z,3.20
2019-03-20T12:46:45.843Z,3.10
2019-03-20T12:47:45.836Z,3.40
2019-03-20T12:48:45.841Z,3.60
2019-03-20T12:49:45.805Z,3.10
2019-03-20T12:50:45.795Z,3.40
2019-03-20T12:51:45.790Z,3.50
2019-03-20T12:52:45.770Z,3.30
2019-03-20T12:53:45.760Z,3.40
2019-03-20T12:54:45.779Z,3.40
2019-03-20T12:55:45.740Z,3.30
2019-03-20T12:56:45.745Z,3.00
2019-03-20T12:57:45.756Z,3.10
2019-03-20T12:58:45.707Z,3.30
2019-03-20T12:59:45.693Z,3.30
2019-03-20T13:01:17.994Z,3.30
2019-03-20T13:02:17.986Z,3.50
2019-03-20T13:03:17.977Z,3.10
2019-03-20T13:04:17.968Z,3.20
2019-03-20T13:05:17.951Z,3.10
2019-03-20T13:06:17.955Z,2.80
2019-03-20T13:07:17.925Z,3.00
2019-03-20T13:08:17.922Z,3.20
2019-03-20T13:09:17.903Z,2.90
2019-03-20T13:10:17.891Z,3.40
2019-03-20T13:11:17.885Z,3.20
2019-03-20T13:12:17.890Z,3.40
2019-03-20T13:13:17.968Z,3.40